Time;durP1;ratioP1;P1;durP2;ratioP2;P2;SDS_P1;SDS_P2;PMS_P1;PMS_P2;Temp;Humidity;BMP_temperature;BMP_pressure;BME280_temperature;BME280_humidity;BME280_pressure;Samples;Min_cycle;Max_cycle;Signal;HPM_P1;HPM_P2
2023/04/28 00:01:11;;;;;;;11.25;6.10;;;;;;;;;;6234620;28;20048;-77
2023/04/28 00:04:12;;;;;;;7.72;5.75;;;;;;;;;;6235154;28;20048;-78
2023/04/28 00:07:15;;;;;;;10.23;5.13;;;;;;;;;;6230692;28;20147;-78
2023/04/28 00:10:16;;;;;;;10.45;5.60;;;;;;;;;;6245533;28;20041;-78
2023/04/28 00:13:18;;;;;;;10.38;4.68;;;;;;;;;;6256822;28;20098;-78
2023/04/28 00:16:20;;;;;;;7.57;5.57;;;;;;;;;;6245844;28;20586;-77
2023/04/28 00:19:21;;;;;;;11.27;5.25;;;;;;;;;;6242192;28;20045;-77
2023/04/28 00:22:23;;;;;;;10.30;5.57;;;;;;;;;;6238592;28;20060;-78
2023/04/28 00:25:25;;;;;;;9.55;5.20;;;;;;;;;;6247346;28;20075;-79
2023/04/28 00:28:26;;;;;;;10.68;5.97;;;;;;;;;;6235342;28;20041;-78
2023/04/28 00:31:35;;;;;;;10.95;5.60;;;;;;;;;;6230846;28;20056;-78
2023/04/28 00:34:37;;;;;;;7.95;5.60;;;;;;;;;;6226955;28;20511;-77
2023/04/28 00:37:38;;;;;;;7.30;5.00;;;;;;;;;;6229152;28;20048;-77
2023/04/28 00:40:40;;;;;;;10.02;5.30;;;;;;;;;;6232278;28;20199;-78
2023/04/28 00:43:48;;;;;;;12.10;5.10;;;;;;;;;;6229682;28;20119;-78
2023/04/28 00:46:52;;;;;;;13.02;5.72;;;;;;;;;;6229044;28;20064;-78
2023/04/28 00:49:54;;;;;;;9.98;5.85;;;;;;;;;;6231816;28;20426;-78
2023/04/28 00:52:56;;;;;;;14.18;5.72;;;;;;;;;;6207579;28;20077;-78
2023/04/28 00:55:58;;;;;;;9.60;5.60;;;;;;;;;;6230015;28;20438;-78
2023/04/28 00:58:59;;;;;;;9.52;5.97;;;;;;;;;;6250332;28;20052;-77
2023/04/28 01:02:02;;;;;;;8.52;5.50;;;;;;;;;;6229933;28;20049;-77
2023/04/28 01:05:04;;;;;;;9.90;6.30;;;;;;;;;;6231838;28;20056;-78
2023/04/28 01:08:06;;;;;;;10.50;5.28;;;;;;;;;;6230102;28;20038;-78
2023/04/28 01:11:12;;;;;;;9.30;5.68;;;;;;;;;;6246997;28;20532;-77
2023/04/28 01:14:33;;;;;;;11.48;5.50;;;;;;;;;;6235817;28;20411;-78
2023/04/28 01:17:35;;;;;;;9.57;4.97;;;;;;;;;;6249665;28;20056;-79
2023/04/28 01:20:37;;;;;;;11.32;5.90;;;;;;;;;;6232825;28;20079;-77
2023/04/28 01:23:38;;;;;;;8.93;5.68;;;;;;;;;;6224373;28;20072;-76
2023/04/28 01:26:40;;;;;;;9.02;5.53;;;;;;;;;;6230239;28;20168;-78
2023/04/28 01:29:42;;;;;;;9.50;5.18;;;;;;;;;;6234356;28;20041;-78
2023/04/28 01:32:43;;;;;;;10.43;5.20;;;;;;;;;;6231313;28;20084;-78
2023/04/28 01:35:45;;;;;;;8.27;5.43;;;;;;;;;;6232371;28;20752;-78
2023/04/28 01:38:46;;;;;;;10.10;5.40;;;;;;;;;;6230231;28;23129;-79
2023/04/28 01:41:48;;;;;;;8.27;5.35;;;;;;;;;;6230487;28;20050;-78
2023/04/28 01:44:50;;;;;;;8.80;5.93;;;;;;;;;;6234900;28;20049;-78
2023/04/28 01:47:51;;;;;;;10.25;5.80;;;;;;;;;;6215168;28;20136;-77
2023/04/28 01:50:53;;;;;;;8.38;5.70;;;;;;;;;;6232006;28;20041;-77
2023/04/28 01:53:55;;;;;;;7.47;4.88;;;;;;;;;;6247396;28;20176;-78
2023/04/28 01:56:57;;;;;;;9.00;5.00;;;;;;;;;;6244130;28;20965;-78
2023/04/28 02:00:02;;;;;;;6.93;4.93;;;;;;;;;;6228764;28;20585;-77
2023/04/28 02:03:04;;;;;;;8.75;5.50;;;;;;;;;;6229000;28;20522;-77
2023/04/28 02:06:09;;;;;;;8.02;5.45;;;;;;;;;;6224707;28;20129;-77
2023/04/28 02:09:10;;;;;;;8.75;5.90;;;;;;;;;;6228635;28;20037;-78
2023/04/28 02:12:12;;;;;;;12.88;5.95;;;;;;;;;;6234911;28;20156;-79
2023/04/28 02:15:14;;;;;;;9.77;6.25;;;;;;;;;;6234544;28;20869;-78
2023/04/28 02:18:16;;;;;;;9.23;6.60;;;;;;;;;;6231266;28;20690;-78
2023/04/28 02:21:17;;;;;;;11.82;6.50;;;;;;;;;;6215372;28;20136;-77
2023/04/28 02:24:19;;;;;;;9.95;6.70;;;;;;;;;;6236618;28;20042;-78
2023/04/28 02:27:21;;;;;;;9.93;6.22;;;;;;;;;;6234962;28;20057;-78
2023/04/28 02:30:22;;;;;;;9.88;6.15;;;;;;;;;;6234177;28;20037;-78
2023/04/28 02:33:24;;;;;;;11.70;6.18;;;;;;;;;;6214162;28;20054;-78
2023/04/28 02:36:26;;;;;;;11.40;6.18;;;;;;;;;;6233493;28;20072;-78
2023/04/28 02:39:29;;;;;;;14.75;5.97;;;;;;;;;;6217736;28;20053;-78
2023/04/28 02:42:31;;;;;;;11.32;5.57;;;;;;;;;;6233275;28;20057;-77
2023/04/28 02:45:33;;;;;;;7.97;5.65;;;;;;;;;;6231091;28;20060;-76
2023/04/28 02:48:36;;;;;;;11.57;5.80;;;;;;;;;;6237466;28;20053;-79
2023/04/28 02:51:38;;;;;;;9.88;6.28;;;;;;;;;;6233805;28;20152;-79
2023/04/28 02:54:40;;;;;;;10.40;5.90;;;;;;;;;;6216471;28;20499;-79
2023/04/28 02:57:41;;;;;;;15.10;6.38;;;;;;;;;;6218836;28;20111;-79
2023/04/28 03:00:43;;;;;;;8.35;5.78;;;;;;;;;;6230059;28;20188;-79
2023/04/28 03:03:45;;;;;;;8.93;6.20;;;;;;;;;;6236913;28;20060;-78
2023/04/28 03:06:47;;;;;;;12.85;6.15;;;;;;;;;;6218077;28;20396;-78
2023/04/28 03:09:49;;;;;;;11.90;6.53;;;;;;;;;;6232210;28;20419;-79
2023/04/28 03:12:51;;;;;;;12.18;6.78;;;;;;;;;;6241057;28;20167;-78
2023/04/28 03:15:53;;;;;;;12.00;6.72;;;;;;;;;;6270500;28;20150;-78
2023/04/28 03:18:54;;;;;;;12.07;6.30;;;;;;;;;;6254387;28;20045;-78
2023/04/28 03:21:56;;;;;;;11.07;6.80;;;;;;;;;;6252079;28;20037;-79
2023/04/28 03:24:58;;;;;;;11.00;6.78;;;;;;;;;;6252125;28;20462;-79
2023/04/28 03:28:01;;;;;;;11.60;7.40;;;;;;;;;;6234399;28;20047;-78
2023/04/28 03:31:02;;;;;;;14.90;7.55;;;;;;;;;;6235093;28;20037;-79
2023/04/28 03:34:04;;;;;;;18.20;8.23;;;;;;;;;;6260039;28;20041;-78
2023/04/28 03:37:06;;;;;;;12.35;7.60;;;;;;;;;;6256096;28;20573;-78
2023/04/28 03:40:08;;;;;;;13.32;8.20;;;;;;;;;;6237406;28;20041;-78
2023/04/28 03:43:27;;;;;;;16.58;8.40;;;;;;;;;;6252056;28;20041;-78
2023/04/28 03:46:43;;;;;;;12.60;8.13;;;;;;;;;;6244521;28;20045;-79
2023/04/28 03:49:45;;;;;;;14.23;8.27;;;;;;;;;;6264081;28;20042;-79
2023/04/28 03:52:47;;;;;;;12.45;8.23;;;;;;;;;;6236594;28;20079;-77
2023/04/28 03:55:49;;;;;;;12.80;8.45;;;;;;;;;;6233499;28;20515;-79
2023/04/28 03:58:52;;;;;;;15.38;8.23;;;;;;;;;;6238331;28;20053;-77
2023/04/28 04:01:54;;;;;;;14.15;7.72;;;;;;;;;;6235674;28;20038;-78
2023/04/28 04:04:55;;;;;;;14.95;8.75;;;;;;;;;;6231024;28;20419;-79
2023/04/28 04:07:58;;;;;;;14.32;8.45;;;;;;;;;;6234456;28;20080;-78
2023/04/28 04:10:59;;;;;;;14.90;8.05;;;;;;;;;;6233114;28;20498;-78
2023/04/28 04:14:01;;;;;;;16.60;9.27;;;;;;;;;;6217109;28;20037;-78
2023/04/28 04:17:04;;;;;;;;;;;;;;;;;;6235975;28;20045;-79
2023/04/28 04:20:07;;;;;;;12.00;8.27;;;;;;;;;;6234025;28;19932;-78
2023/04/28 04:23:08;;;;;;;16.73;8.70;;;;;;;;;;6213367;28;20072;-78
2023/04/28 04:26:10;;;;;;;16.35;9.20;;;;;;;;;;6246834;28;20045;-78
2023/04/28 04:29:12;;;;;;;14.93;8.73;;;;;;;;;;6232593;28;20045;-77
2023/04/28 04:32:14;;;;;;;14.82;9.00;;;;;;;;;;6234198;28;20048;-77
2023/04/28 04:35:16;;;;;;;18.02;9.18;;;;;;;;;;6231992;28;20107;-77
2023/04/28 04:38:18;;;;;;;18.08;9.48;;;;;;;;;;6229623;28;20544;-78
2023/04/28 04:41:19;;;;;;;14.93;9.63;;;;;;;;;;6236708;28;20033;-78
2023/04/28 04:44:23;;;;;;;19.65;9.80;;;;;;;;;;6247448;28;20038;-77
2023/04/28 04:47:27;;;;;;;14.68;9.15;;;;;;;;;;6250385;28;20465;-75
2023/04/28 04:50:28;;;;;;;15.73;9.60;;;;;;;;;;6236848;28;20041;-78
2023/04/28 04:53:30;;;;;;;19.58;10.32;;;;;;;;;;6219326;28;20044;-77
2023/04/28 04:56:32;;;;;;;22.95;10.55;;;;;;;;;;6249580;28;20124;-77
2023/04/28 04:59:34;;;;;;;21.98;10.38;;;;;;;;;;6234058;28;20045;-77
2023/04/28 05:02:41;;;;;;;18.60;12.30;;;;;;;;;;6214829;28;20539;-77
2023/04/28 05:05:44;;;;;;;17.75;9.75;;;;;;;;;;6235164;28;20048;-78
2023/04/28 05:08:55;;;;;;;21.92;10.27;;;;;;;;;;6235052;28;20499;-75
2023/04/28 05:11:57;;;;;;;22.23;10.48;;;;;;;;;;6232494;28;20041;-77
2023/04/28 05:14:59;;;;;;;20.83;11.25;;;;;;;;;;6245520;28;20037;-77
2023/04/28 05:18:05;;;;;;;18.35;10.95;;;;;;;;;;6231303;28;20050;-77
2023/04/28 05:21:07;;;;;;;19.42;11.00;;;;;;;;;;6213383;28;20188;-77
2023/04/28 05:24:09;;;;;;;21.88;11.15;;;;;;;;;;6230225;28;20037;-77
2023/04/28 05:27:11;;;;;;;19.52;10.02;;;;;;;;;;6229188;28;20041;-78
2023/04/28 05:30:14;;;;;;;17.85;11.27;;;;;;;;;;6227043;28;20128;-78
2023/04/28 05:33:16;;;;;;;16.38;10.23;;;;;;;;;;6244354;28;20045;-78
2023/04/28 05:36:18;;;;;;;19.95;10.52;;;;;;;;;;6246433;28;20052;-78
2023/04/28 05:39:20;;;;;;;15.38;9.30;;;;;;;;;;6227771;28;20046;-78
2023/04/28 05:42:22;;;;;;;18.23;9.60;;;;;;;;;;6249220;28;20056;-77
2023/04/28 05:45:24;;;;;;;20.90;10.55;;;;;;;;;;6231010;28;20565;-76
2023/04/28 05:48:26;;;;;;;18.23;9.85;;;;;;;;;;6233279;28;20105;-77
2023/04/28 05:51:28;;;;;;;17.53;10.10;;;;;;;;;;6215102;28;20415;-76
2023/04/28 05:54:30;;;;;;;16.33;9.30;;;;;;;;;;6235105;28;20072;-76
2023/04/28 05:57:32;;;;;;;17.27;9.23;;;;;;;;;;6236288;28;20048;-76
2023/04/28 06:00:50;;;;;;;18.17;10.30;;;;;;;;;;6231111;28;20053;-78
2023/04/28 06:03:52;;;;;;;14.50;9.80;;;;;;;;;;6233467;28;20045;-76
2023/04/28 06:06:55;;;;;;;21.38;10.90;;;;;;;;;;6238772;28;20041;-77
2023/04/28 06:09:57;;;;;;;19.50;10.23;;;;;;;;;;6233352;28;20157;-77
2023/04/28 06:12:58;;;;;;;18.20;11.00;;;;;;;;;;6253373;28;20510;-78
2023/04/28 06:16:00;;;;;;;17.27;10.73;;;;;;;;;;6231666;28;20068;-77
2023/04/28 06:19:02;;;;;;;18.15;10.60;;;;;;;;;;6232801;28;20415;-77
2023/04/28 06:22:04;;;;;;;17.17;9.68;;;;;;;;;;6233794;28;20056;-77
2023/04/28 06:25:06;;;;;;;16.67;10.10;;;;;;;;;;6219003;28;20048;-78
2023/04/28 06:28:13;;;;;;;18.92;9.95;;;;;;;;;;6236684;28;20136;-77
2023/04/28 06:31:15;;;;;;;18.08;10.98;;;;;;;;;;6235601;28;20053;-77
2023/04/28 06:34:18;;;;;;;18.07;11.10;;;;;;;;;;6238730;28;20042;-76
2023/04/28 06:37:20;;;;;;;21.63;10.60;;;;;;;;;;6220614;28;20049;-77
2023/04/28 06:40:21;;;;;;;20.73;10.73;;;;;;;;;;6225314;28;20048;-78
2023/04/28 06:43:29;;;;;;;20.30;11.02;;;;;;;;;;6219057;28;20179;-78
2023/04/28 06:46:47;;;;;;;19.52;10.23;;;;;;;;;;6228408;28;20083;-77
2023/04/28 06:49:50;;;;;;;19.92;10.60;;;;;;;;;;6234204;28;20061;-78
2023/04/28 06:52:52;;;;;;;17.97;10.90;;;;;;;;;;6229315;28;20495;-78
2023/04/28 06:55:55;;;;;;;19.38;10.27;;;;;;;;;;6229551;28;20440;-76
2023/04/28 06:58:57;;;;;;;16.38;9.85;;;;;;;;;;6233428;28;20046;-77
2023/04/28 07:02:00;;;;;;;21.05;10.10;;;;;;;;;;6249057;28;20128;-78
2023/04/28 07:05:02;;;;;;;16.33;9.77;;;;;;;;;;6234049;28;20053;-76
2023/04/28 07:08:04;;;;;;;16.38;10.13;;;;;;;;;;6234847;28;20056;-77
2023/04/28 07:11:06;;;;;;;19.17;11.00;;;;;;;;;;6255976;28;20091;-76
2023/04/28 07:14:08;;;;;;;17.10;10.13;;;;;;;;;;6254559;28;20049;-76
2023/04/28 07:17:10;;;;;;;19.55;11.07;;;;;;;;;;6248678;28;20053;-77
2023/04/28 07:20:14;;;;;;;18.33;10.30;;;;;;;;;;6235537;28;20049;-77
2023/04/28 07:23:16;;;;;;;18.33;11.13;;;;;;;;;;6232733;28;20128;-77
2023/04/28 07:26:18;;;;;;;17.55;10.27;;;;;;;;;;6235636;28;20132;-77
2023/04/28 07:29:19;;;;;;;18.25;10.68;;;;;;;;;;6250564;28;20505;-77
2023/04/28 07:32:21;;;;;;;18.15;10.75;;;;;;;;;;6232784;28;20842;-77
2023/04/28 07:35:24;;;;;;;17.90;10.52;;;;;;;;;;6231419;28;20049;-77
2023/04/28 07:38:26;;;;;;;17.65;10.52;;;;;;;;;;6247420;28;20116;-78
2023/04/28 07:41:28;;;;;;;19.20;11.75;;;;;;;;;;6236329;28;20056;-77
2023/04/28 07:44:30;;;;;;;19.98;12.25;;;;;;;;;;6234314;28;20122;-77
2023/04/28 07:47:32;;;;;;;19.63;11.57;;;;;;;;;;6227940;28;20459;-77
2023/04/28 07:50:34;;;;;;;15.48;11.00;;;;;;;;;;6237945;28;20432;-78
2023/04/28 07:53:35;;;;;;;17.33;10.60;;;;;;;;;;6230353;28;20041;-77
2023/04/28 07:56:37;;;;;;;19.85;11.40;;;;;;;;;;6213942;28;20061;-76
2023/04/28 07:59:39;;;;;;;20.05;11.95;;;;;;;;;;6252082;28;20037;-77
2023/04/28 08:02:41;;;;;;;22.92;11.75;;;;;;;;;;6236542;28;20053;-77
2023/04/28 08:05:44;;;;;;;19.50;10.80;;;;;;;;;;6228535;28;20045;-78
2023/04/28 08:08:46;;;;;;;19.50;11.07;;;;;;;;;;6235276;28;20041;-77
2023/04/28 08:11:48;;;;;;;23.88;11.10;;;;;;;;;;6213875;28;20175;-77
2023/04/28 08:14:49;;;;;;;20.52;11.35;;;;;;;;;;6230321;28;20109;-77
2023/04/28 08:17:51;;;;;;;19.92;10.85;;;;;;;;;;6246231;28;20090;-78
2023/04/28 08:20:53;;;;;;;18.88;11.38;;;;;;;;;;6230515;28;20115;-76
2023/04/28 08:23:54;;;;;;;19.67;11.00;;;;;;;;;;6232122;28;20053;-77
2023/04/28 08:26:56;;;;;;;18.17;11.38;;;;;;;;;;6214050;28;20524;-79
2023/04/28 08:29:58;;;;;;;19.58;11.52;;;;;;;;;;6246054;28;20183;-78
2023/04/28 08:33:00;;;;;;;16.80;11.77;;;;;;;;;;6233545;28;20045;-77
2023/04/28 08:36:02;;;;;;;18.20;10.82;;;;;;;;;;6230707;28;20041;-77
2023/04/28 08:39:07;;;;;;;19.60;10.77;;;;;;;;;;6217450;28;20102;-78
2023/04/28 08:42:09;;;;;;;17.85;11.50;;;;;;;;;;6232720;28;20037;-77
2023/04/28 08:45:14;;;;;;;17.77;10.75;;;;;;;;;;6232035;28;20041;-78
2023/04/28 08:48:21;;;;;;;19.30;11.23;;;;;;;;;;6232223;28;20054;-78
2023/04/28 08:51:33;;;;;;;17.88;10.98;;;;;;;;;;6232157;28;20054;-79
2023/04/28 08:54:36;;;;;;;18.92;11.00;;;;;;;;;;6234124;28;20050;-78
2023/04/28 08:57:48;;;;;;;20.77;11.40;;;;;;;;;;6231520;28;20529;-77
2023/04/28 09:00:53;;;;;;;18.67;12.25;;;;;;;;;;6230044;28;20128;-79
2023/04/28 09:03:55;;;;;;;17.15;10.43;;;;;;;;;;6248894;28;20049;-77
2023/04/28 09:06:57;;;;;;;14.73;10.27;;;;;;;;;;6236261;28;20083;-78
2023/04/28 09:10:19;;;;;;;18.17;11.23;;;;;;;;;;6234314;28;20474;-78
2023/04/28 09:13:25;;;;;;;21.00;11.18;;;;;;;;;;6225272;28;20049;-78
2023/04/28 09:16:40;;;;;;;20.00;10.43;;;;;;;;;;6231362;28;20168;-77
2023/04/28 09:19:42;;;;;;;17.27;10.60;;;;;;;;;;6246758;28;20431;-78
2023/04/28 09:22:44;;;;;;;16.77;10.43;;;;;;;;;;6235926;28;20053;-78
2023/04/28 09:26:02;;;;;;;17.73;10.48;;;;;;;;;;6238676;28;20059;-79
2023/04/28 09:29:13;;;;;;;22.40;11.10;;;;;;;;;;6252740;28;20037;-78
2023/04/28 09:32:20;;;;;;;16.90;10.35;;;;;;;;;;6238551;28;20095;-78
2023/04/28 09:35:41;;;;;;;17.67;10.45;;;;;;;;;;6233685;28;20622;-79
2023/04/28 09:38:44;;;;;;;18.05;10.10;;;;;;;;;;6249789;28;20076;-79
2023/04/28 09:41:45;;;;;;;18.73;10.83;;;;;;;;;;6228151;28;20645;-78
2023/04/28 09:44:53;;;;;;;16.83;10.18;;;;;;;;;;6235246;28;20046;-78
2023/04/28 09:48:09;;;;;;;16.42;10.35;;;;;;;;;;6245203;28;20072;-78
2023/04/28 09:51:11;;;;;;;16.17;10.40;;;;;;;;;;6241222;28;20045;-77
2023/04/28 09:54:15;;;;;;;16.58;10.77;;;;;;;;;;6247398;28;20503;-77
2023/04/28 09:57:20;;;;;;;15.60;10.13;;;;;;;;;;6224766;28;20099;-79
2023/04/28 10:00:23;;;;;;;14.27;10.25;;;;;;;;;;6234130;28;20441;-79
2023/04/28 10:03:27;;;;;;;19.02;10.82;;;;;;;;;;6227823;28;20050;-79
2023/04/28 10:06:33;;;;;;;14.88;10.65;;;;;;;;;;6227842;28;20515;-79
2023/04/28 10:09:35;;;;;;;16.73;9.70;;;;;;;;;;6235346;28;20137;-78
2023/04/28 10:12:37;;;;;;;14.73;9.88;;;;;;;;;;6233057;28;20167;-78
2023/04/28 10:15:40;;;;;;;15.82;10.32;;;;;;;;;;6232121;28;20048;-78
2023/04/28 10:18:43;;;;;;;17.77;9.40;;;;;;;;;;6251136;28;20045;-79
2023/04/28 10:22:03;;;;;;;14.82;10.15;;;;;;;;;;6235171;28;20057;-78
2023/04/28 10:25:16;;;;;;;15.65;9.73;;;;;;;;;;6236294;28;20145;-79
2023/04/28 10:28:18;;;;;;;13.35;9.55;;;;;;;;;;6225329;28;20045;-79
2023/04/28 10:31:21;;;;;;;16.77;9.90;;;;;;;;;;6234874;28;20061;-78
2023/04/28 10:34:24;;;;;;;;;;;;;;;;;;6238810;28;20049;-78
2023/04/28 10:38:07;;;;;;;14.10;9.35;;;;;;;;;;6237837;28;20360;-79
2023/04/28 10:41:32;;;;;;;14.70;9.68;;;;;;;;;;6233229;28;20086;-79
2023/04/28 10:44:33;;;;;;;12.85;8.07;;;;;;;;;;6233055;28;20068;-77
2023/04/28 10:48:02;;;;;;;13.35;8.52;;;;;;;;;;6232062;28;20334;-79
2023/04/28 10:51:05;;;;;;;12.32;8.18;;;;;;;;;;6228816;28;20064;-80
2023/04/28 10:54:07;;;;;;;12.77;7.68;;;;;;;;;;6239389;28;20041;-78
2023/04/28 10:57:19;;;;;;;13.45;7.47;;;;;;;;;;6235293;28;20515;-78
2023/04/28 11:00:29;;;;;;;12.15;7.75;;;;;;;;;;6248667;28;20049;-77
2023/04/28 11:03:48;;;;;;;13.80;8.52;;;;;;;;;;6230820;28;20041;-79
2023/04/28 11:07:10;;;;;;;11.75;8.18;;;;;;;;;;6230778;28;20587;-78
2023/04/28 11:10:12;;;;;;;12.38;8.15;;;;;;;;;;6229965;28;20132;-79
2023/04/28 11:13:26;;;;;;;14.82;7.90;;;;;;;;;;6240676;28;20063;-77
2023/04/28 11:16:29;;;;;;;10.30;7.60;;;;;;;;;;6252618;28;20065;-78
2023/04/28 11:19:33;;;;;;;11.20;8.15;;;;;;;;;;6240363;28;20057;-79
2023/04/28 11:22:34;;;;;;;11.18;7.55;;;;;;;;;;6231571;28;20045;-76
2023/04/28 11:25:56;;;;;;;14.55;9.23;;;;;;;;;;6231041;28;20088;-78
2023/04/28 11:28:58;;;;;;;13.00;8.13;;;;;;;;;;6230444;28;20143;-78
2023/04/28 11:32:01;;;;;;;12.57;8.00;;;;;;;;;;6231996;28;20120;-77
2023/04/28 11:35:08;;;;;;;12.07;7.75;;;;;;;;;;6231265;28;20052;-78
2023/04/28 11:38:10;;;;;;;14.23;8.43;;;;;;;;;;6245114;28;22816;-78
2023/04/28 11:41:11;;;;;;;11.27;7.63;;;;;;;;;;6216621;28;20165;-77
2023/04/28 11:44:18;;;;;;;10.60;7.80;;;;;;;;;;6230383;28;20050;-76
2023/04/28 11:47:31;;;;;;;9.88;7.28;;;;;;;;;;6248532;28;20359;-76
2023/04/28 11:50:36;;;;;;;;;;;;;;;;;;6251770;28;20048;-77
2023/04/28 11:53:44;;;;;;;10.23;6.72;;;;;;;;;;6233011;28;20012;-76
2023/04/28 11:56:46;;;;;;;11.35;7.18;;;;;;;;;;6229014;28;20061;-77
2023/04/28 11:59:49;;;;;;;10.15;6.75;;;;;;;;;;6234872;28;20049;-76
2023/04/28 12:02:51;;;;;;;10.75;7.22;;;;;;;;;;6235060;28;20057;-76
2023/04/28 12:05:53;;;;;;;10.88;6.63;;;;;;;;;;6232550;28;20447;-76
2023/04/28 12:08:56;;;;;;;9.10;7.07;;;;;;;;;;6235080;28;22848;-78
2023/04/28 12:12:02;;;;;;;9.45;7.05;;;;;;;;;;6234157;28;20056;-77
2023/04/28 12:15:06;;;;;;;9.20;6.95;;;;;;;;;;6235328;28;20100;-77
2023/04/28 12:18:11;;;;;;;10.32;7.80;;;;;;;;;;6232655;28;20057;-78
2023/04/28 12:21:22;;;;;;;9.27;7.00;;;;;;;;;;6233532;28;20908;-76
2023/04/28 12:24:25;;;;;;;9.73;7.53;;;;;;;;;;6243696;28;20152;-77
2023/04/28 12:27:28;;;;;;;10.57;7.40;;;;;;;;;;6236293;28;20051;-77
2023/04/28 12:30:40;;;;;;;10.02;7.53;;;;;;;;;;6236698;28;20052;-77
2023/04/28 12:33:43;;;;;;;9.13;7.22;;;;;;;;;;6250277;28;20045;-77
2023/04/28 12:36:45;;;;;;;9.05;6.97;;;;;;;;;;6233322;28;20415;-78
2023/04/28 12:39:47;;;;;;;10.50;7.10;;;;;;;;;;6232211;28;20092;-78
2023/04/28 12:42:49;;;;;;;10.23;7.30;;;;;;;;;;6249644;28;20045;-77
2023/04/28 12:45:53;;;;;;;9.98;6.70;;;;;;;;;;6229033;28;20057;-79
2023/04/28 12:48:55;;;;;;;9.38;7.32;;;;;;;;;;6238304;28;20432;-78
2023/04/28 12:51:57;;;;;;;8.93;7.18;;;;;;;;;;6230737;28;20037;-79
2023/04/28 12:54:59;;;;;;;9.98;7.28;;;;;;;;;;6229973;28;20037;-77
2023/04/28 12:58:00;;;;;;;8.65;7.05;;;;;;;;;;6226732;28;20041;-78
2023/04/28 13:01:03;;;;;;;11.48;6.97;;;;;;;;;;6228071;28;20044;-78
2023/04/28 13:04:04;;;;;;;8.23;6.60;;;;;;;;;;6229724;28;20433;-77
2023/04/28 13:07:07;;;;;;;9.98;6.65;;;;;;;;;;6229113;28;20632;-78
2023/04/28 13:10:09;;;;;;;9.25;7.30;;;;;;;;;;6228841;28;20041;-78
2023/04/28 13:13:11;;;;;;;9.82;6.90;;;;;;;;;;6228840;28;20223;-78
2023/04/28 13:16:13;;;;;;;8.93;7.00;;;;;;;;;;6226149;28;20041;-79
2023/04/28 13:19:16;;;;;;;;;;;;;;;;;;6231255;28;20057;-76
2023/04/28 13:22:18;;;;;;;9.85;6.18;;;;;;;;;;6225866;28;19921;-77
2023/04/28 13:25:20;;;;;;;6.45;5.80;;;;;;;;;;6230150;28;20123;-78
2023/04/28 13:28:22;;;;;;;6.03;5.03;;;;;;;;;;6249126;28;20042;-77
2023/04/28 13:31:23;;;;;;;6.65;5.80;;;;;;;;;;6233288;28;20188;-78
2023/04/28 13:34:25;;;;;;;6.60;5.70;;;;;;;;;;6214763;28;20068;-77
2023/04/28 13:37:27;;;;;;;5.90;4.78;;;;;;;;;;6231386;28;20164;-77
2023/04/28 13:40:29;;;;;;;5.75;5.00;;;;;;;;;;6233973;28;20042;-78
2023/04/28 13:43:30;;;;;;;5.90;4.73;;;;;;;;;;6234619;28;20064;-79
2023/04/28 13:46:32;;;;;;;5.50;5.00;;;;;;;;;;6236380;28;20488;-79
2023/04/28 13:49:36;;;;;;;6.10;5.07;;;;;;;;;;6230879;28;20051;-78
2023/04/28 13:52:37;;;;;;;5.57;4.85;;;;;;;;;;6236216;28;20049;-78
2023/04/28 13:55:39;;;;;;;4.88;4.10;;;;;;;;;;6233258;28;20052;-78
2023/04/28 13:58:41;;;;;;;4.95;4.45;;;;;;;;;;6249513;28;20045;-78
2023/04/28 14:01:42;;;;;;;5.60;5.00;;;;;;;;;;6247233;28;20053;-78
2023/04/28 14:04:47;;;;;;;5.30;4.30;;;;;;;;;;6218445;28;20052;-78
2023/04/28 14:07:50;;;;;;;6.00;4.50;;;;;;;;;;6247728;28;20051;-78
2023/04/28 14:10:52;;;;;;;4.85;3.83;;;;;;;;;;6236205;28;20038;-78
2023/04/28 14:13:53;;;;;;;4.82;3.63;;;;;;;;;;6240474;28;20045;-78
2023/04/28 14:16:55;;;;;;;4.28;3.80;;;;;;;;;;6236569;28;20107;-78
2023/04/28 14:19:57;;;;;;;5.32;4.22;;;;;;;;;;6232762;28;20538;-78
2023/04/28 14:22:58;;;;;;;5.18;3.60;;;;;;;;;;6199899;28;20188;-78
2023/04/28 14:26:00;;;;;;;3.50;3.20;;;;;;;;;;6213891;28;20107;-77
2023/04/28 14:29:02;;;;;;;4.25;3.85;;;;;;;;;;6248527;28;20124;-77
2023/04/28 14:32:04;;;;;;;4.88;3.75;;;;;;;;;;6228745;28;20046;-76
2023/04/28 14:35:05;;;;;;;4.40;4.00;;;;;;;;;;6230478;28;20520;-77
2023/04/28 14:38:07;;;;;;;4.10;3.70;;;;;;;;;;6230541;28;20037;-77
2023/04/28 14:41:10;;;;;;;4.55;3.60;;;;;;;;;;6234024;28;20045;-77
2023/04/28 14:44:11;;;;;;;4.60;3.45;;;;;;;;;;6227312;28;20052;-76
2023/04/28 14:47:13;;;;;;;3.63;3.33;;;;;;;;;;6230770;28;20128;-76
2023/04/28 14:50:15;;;;;;;4.90;3.85;;;;;;;;;;6244988;28;20048;-78
2023/04/28 14:53:17;;;;;;;5.85;4.38;;;;;;;;;;6235141;28;20263;-77
2023/04/28 14:56:19;;;;;;;5.87;4.50;;;;;;;;;;6227175;28;20158;-76
2023/04/28 14:59:21;;;;;;;6.53;5.17;;;;;;;;;;6227213;28;20443;-76
2023/04/28 15:02:28;;;;;;;5.43;4.67;;;;;;;;;;6228574;28;20507;-76
2023/04/28 15:05:30;;;;;;;8.07;5.78;;;;;;;;;;6234882;28;20124;-78
2023/04/28 15:08:32;;;;;;;5.95;5.35;;;;;;;;;;6229423;28;20044;-77
2023/04/28 15:11:34;;;;;;;8.25;6.10;;;;;;;;;;6251644;28;20111;-76
2023/04/28 15:14:35;;;;;;;8.43;6.72;;;;;;;;;;6274296;28;20072;-76
2023/04/28 15:17:37;;;;;;;11.55;7.40;;;;;;;;;;6239656;28;20095;-78
2023/04/28 15:20:39;;;;;;;9.20;7.67;;;;;;;;;;6236250;28;20494;-78
2023/04/28 15:23:41;;;;;;;8.75;6.72;;;;;;;;;;6233781;28;20522;-77
2023/04/28 15:26:42;;;;;;;11.75;8.93;;;;;;;;;;6246433;28;20049;-77
2023/04/28 15:29:44;;;;;;;9.65;6.82;;;;;;;;;;6237739;28;20049;-77
2023/04/28 15:32:48;;;;;;;9.40;7.28;;;;;;;;;;6232653;28;20609;-76
2023/04/28 15:35:50;;;;;;;13.35;7.97;;;;;;;;;;6225469;28;20109;-78
2023/04/28 15:38:51;;;;;;;12.25;8.45;;;;;;;;;;6233949;28;20132;-78
2023/04/28 15:41:54;;;;;;;14.00;8.88;;;;;;;;;;6246992;28;20053;-77
2023/04/28 15:44:56;;;;;;;12.60;9.90;;;;;;;;;;6232769;28;20041;-78
2023/04/28 15:47:58;;;;;;;15.02;9.70;;;;;;;;;;6230984;28;20574;-78
2023/04/28 15:51:00;;;;;;;13.70;9.93;;;;;;;;;;6242289;28;20056;-77
2023/04/28 15:54:02;;;;;;;12.13;8.40;;;;;;;;;;6232248;28;20071;-75
2023/04/28 15:57:04;;;;;;;14.85;10.15;;;;;;;;;;6228941;28;20041;-77
2023/04/28 16:00:07;;;;;;;14.27;10.30;;;;;;;;;;6223036;28;20184;-77
2023/04/28 16:03:09;;;;;;;14.52;10.25;;;;;;;;;;6232964;28;20272;-76
2023/04/28 16:06:11;;;;;;;16.63;11.15;;;;;;;;;;6229007;28;20128;-77
2023/04/28 16:09:12;;;;;;;15.38;10.95;;;;;;;;;;6231534;28;20172;-77
2023/04/28 16:12:14;;;;;;;17.88;12.57;;;;;;;;;;6208341;28;20469;-77
2023/04/28 16:15:16;;;;;;;15.75;11.77;;;;;;;;;;6204509;28;20046;-76
2023/04/28 16:18:17;;;;;;;21.60;13.10;;;;;;;;;;6217273;28;20049;-78
2023/04/28 16:21:19;;;;;;;21.65;13.68;;;;;;;;;;6226222;28;20050;-78
2023/04/28 16:24:21;;;;;;;24.65;14.63;;;;;;;;;;6230202;28;20658;-78
2023/04/28 16:27:23;;;;;;;25.23;14.07;;;;;;;;;;6215619;28;20045;-77
2023/04/28 16:30:25;;;;;;;28.90;15.48;;;;;;;;;;6230106;28;20806;-76
2023/04/28 16:33:26;;;;;;;23.77;13.73;;;;;;;;;;6215740;28;20120;-76
2023/04/28 16:36:34;;;;;;;21.35;13.40;;;;;;;;;;6228226;28;20969;-77
2023/04/28 16:39:36;;;;;;;37.65;25.42;;;;;;;;;;6231215;28;20135;-78
2023/04/28 16:42:37;;;;;;;28.98;16.73;;;;;;;;;;6228957;28;20500;-76
2023/04/28 16:45:39;;;;;;;35.50;22.02;;;;;;;;;;6227212;28;20053;-77
2023/04/28 16:48:41;;;;;;;26.38;15.02;;;;;;;;;;6234967;28;20060;-77
2023/04/28 16:52:00;;;;;;;27.67;16.45;;;;;;;;;;6229364;28;20045;-76
2023/04/28 16:55:03;;;;;;;40.83;23.55;;;;;;;;;;6231843;28;20041;-77
2023/04/28 16:58:05;;;;;;;36.35;19.33;;;;;;;;;;6232818;28;20135;-77
2023/04/28 17:01:06;;;;;;;28.17;16.33;;;;;;;;;;6227584;28;20127;-78
2023/04/28 17:04:08;;;;;;;27.30;15.85;;;;;;;;;;6234916;28;20041;-78
2023/04/28 17:07:10;;;;;;;44.63;24.23;;;;;;;;;;6241340;28;20038;-77
2023/04/28 17:10:12;;;;;;;15.50;10.20;;;;;;;;;;6232183;28;20124;-77
2023/04/28 17:13:14;;;;;;;26.40;16.80;;;;;;;;;;6222850;28;20706;-77
2023/04/28 17:16:16;;;;;;;13.43;8.18;;;;;;;;;;6220335;28;20518;-77
2023/04/28 17:19:17;;;;;;;27.85;15.30;;;;;;;;;;6232392;28;20087;-77
2023/04/28 17:22:19;;;;;;;24.45;13.77;;;;;;;;;;6201159;28;20790;-77
2023/04/28 17:25:22;;;;;;;58.60;31.08;;;;;;;;;;6206506;28;20083;-77
2023/04/28 17:28:24;;;;;;;16.55;9.02;;;;;;;;;;6224354;28;20042;-76
2023/04/28 17:31:27;;;;;;;13.25;8.43;;;;;;;;;;6225187;28;20049;-78
2023/04/28 17:34:29;;;;;;;11.48;7.93;;;;;;;;;;6225947;28;20108;-77
2023/04/28 17:37:33;;;;;;;37.00;17.15;;;;;;;;;;6224402;28;20140;-78
2023/04/28 17:40:34;;;;;;;40.92;19.88;;;;;;;;;;6226133;28;20973;-78
2023/04/28 17:43:38;;;;;;;9.03;6.00;;;;;;;;;;6227820;28;20403;-76
2023/04/28 17:46:40;;;;;;;;;;;;;;;;;;6227929;28;20053;-77
2023/04/28 17:49:41;;;;;;;3.75;2.25;;;;;;;;;;6228891;28;19936;-77
2023/04/28 17:52:43;;;;;;;3.25;1.80;;;;;;;;;;6225322;28;20535;-79
2023/04/28 17:55:45;;;;;;;4.35;2.53;;;;;;;;;;6210613;28;20094;-77
2023/04/28 17:58:46;;;;;;;3.53;2.08;;;;;;;;;;6226872;28;20175;-78
2023/04/28 18:01:48;;;;;;;4.85;3.25;;;;;;;;;;6223195;28;20419;-81
2023/04/28 18:04:50;;;;;;;3.78;2.60;;;;;;;;;;6244849;28;20130;-78